sensor_id;sensor_type;location;lat;lon;timestamp;temperature;humidity
7476;DHT22;3779;49.216;8.650;2022-07-05T00:02:30;26.70;47.00
7476;DHT22;3779;49.216;8.650;2022-07-05T00:05:16;26.70;46.70
7476;DHT22;3779;49.216;8.650;2022-07-05T00:08:03;26.70;46.90
7476;DHT22;3779;49.216;8.650;2022-07-05T00:10:49;26.70;47.00
7476;DHT22;3779;49.216;8.650;2022-07-05T00:13:35;26.70;47.00
7476;DHT22;3779;49.216;8.650;2022-07-05T00:16:21;26.70;47.80
7476;DHT22;3779;49.216;8.650;2022-07-05T00:19:07;26.70;47.10
7476;DHT22;3779;49.216;8.650;2022-07-05T00:21:53;26.70;47.00
7476;DHT22;3779;49.216;8.650;2022-07-05T00:24:40;26.70;46.90
7476;DHT22;3779;49.216;8.650;2022-07-05T00:27:26;26.70;47.30
7476;DHT22;3779;49.216;8.650;2022-07-05T00:30:12;26.70;47.20
7476;DHT22;3779;49.216;8.650;2022-07-05T00:32:58;26.60;47.30
7476;DHT22;3779;49.216;8.650;2022-07-05T00:35:44;26.60;47.00
7476;DHT22;3779;49.216;8.650;2022-07-05T00:38:30;26.60;47.00
7476;DHT22;3779;49.216;8.650;2022-07-05T00:41:16;26.60;46.90
7476;DHT22;3779;49.216;8.650;2022-07-05T00:44:05;26.60;47.00
7476;DHT22;3779;49.216;8.650;2022-07-05T00:46:51;26.60;47.10
7476;DHT22;3779;49.216;8.650;2022-07-05T00:49:37;26.60;46.50
7476;DHT22;3779;49.216;8.650;2022-07-05T00:52:24;26.50;46.30
7476;DHT22;3779;49.216;8.650;2022-07-05T00:55:10;26.60;47.10
7476;DHT22;3779;49.216;8.650;2022-07-05T00:57:55;26.60;46.70
7476;DHT22;3779;49.216;8.650;2022-07-05T01:00:41;26.50;46.70
7476;DHT22;3779;49.216;8.650;2022-07-05T01:03:27;26.60;47.00
7476;DHT22;3779;49.216;8.650;2022-07-05T01:06:14;26.50;47.10
7476;DHT22;3779;49.216;8.650;2022-07-05T01:09:00;26.50;47.00
7476;DHT22;3779;49.216;8.650;2022-07-05T01:11:47;26.50;47.00
7476;DHT22;3779;49.216;8.650;2022-07-05T01:14:34;26.50;47.00
7476;DHT22;3779;49.216;8.650;2022-07-05T01:17:20;26.50;47.00
7476;DHT22;3779;49.216;8.650;2022-07-05T01:20:07;26.50;47.00
7476;DHT22;3779;49.216;8.650;2022-07-05T01:22:54;26.50;46.90
7476;DHT22;3779;49.216;8.650;2022-07-05T01:25:40;26.50;46.90
7476;DHT22;3779;49.216;8.650;2022-07-05T01:28:26;26.40;46.80
7476;DHT22;3779;49.216;8.650;2022-07-05T01:31:12;26.40;46.90
7476;DHT22;3779;49.216;8.650;2022-07-05T01:33:58;26.40;46.60
7476;DHT22;3779;49.216;8.650;2022-07-05T01:36:44;26.40;46.40
7476;DHT22;3779;49.216;8.650;2022-07-05T01:39:30;26.40;46.50
7476;DHT22;3779;49.216;8.650;2022-07-05T01:42:16;26.40;46.50
7476;DHT22;3779;49.216;8.650;2022-07-05T01:45:03;26.40;46.20
7476;DHT22;3779;49.216;8.650;2022-07-05T01:47:48;26.40;46.30
7476;DHT22;3779;49.216;8.650;2022-07-05T01:50:38;26.40;46.40
7476;DHT22;3779;49.216;8.650;2022-07-05T01:53:29;26.30;46.30
7476;DHT22;3779;49.216;8.650;2022-07-05T01:56:16;26.30;46.40
7476;DHT22;3779;49.216;8.650;2022-07-05T01:59:02;26.30;46.10
7476;DHT22;3779;49.216;8.650;2022-07-05T02:01:47;26.30;46.00
7476;DHT22;3779;49.216;8.650;2022-07-05T02:04:35;26.30;46.10
7476;DHT22;3779;49.216;8.650;2022-07-05T02:07:23;26.30;46.10
7476;DHT22;3779;49.216;8.650;2022-07-05T02:10:09;26.30;45.90
7476;DHT22;3779;49.216;8.650;2022-07-05T02:12:55;26.30;46.00
7476;DHT22;3779;49.216;8.650;2022-07-05T02:15:41;26.30;45.80
7476;DHT22;3779;49.216;8.650;2022-07-05T02:18:29;26.30;45.60
7476;DHT22;3779;49.216;8.650;2022-07-05T02:21:15;26.30;45.80
7476;DHT22;3779;49.216;8.650;2022-07-05T02:24:03;26.30;45.70
7476;DHT22;3779;49.216;8.650;2022-07-05T02:26:53;26.30;45.60
7476;DHT22;3779;49.216;8.650;2022-07-05T02:29:39;26.30;45.50
7476;DHT22;3779;49.216;8.650;2022-07-05T02:32:25;26.30;45.50
7476;DHT22;3779;49.216;8.650;2022-07-05T02:35:12;26.30;45.80
7476;DHT22;3779;49.216;8.650;2022-07-05T02:37:59;26.20;45.70
7476;DHT22;3779;49.216;8.650;2022-07-05T02:40:45;26.20;45.70
7476;DHT22;3779;49.216;8.650;2022-07-05T02:43:31;26.20;45.40
7476;DHT22;3779;49.216;8.650;2022-07-05T02:46:17;26.20;45.40
7476;DHT22;3779;49.216;8.650;2022-07-05T02:49:04;26.20;45.30
7476;DHT22;3779;49.216;8.650;2022-07-05T02:51:52;26.20;45.50
7476;DHT22;3779;49.216;8.650;2022-07-05T02:54:38;26.20;45.60
7476;DHT22;3779;49.216;8.650;2022-07-05T02:57:26;26.20;45.40
7476;DHT22;3779;49.216;8.650;2022-07-05T03:00:12;26.20;45.50
7476;DHT22;3779;49.216;8.650;2022-07-05T03:03:03;26.20;45.50
7476;DHT22;3779;49.216;8.650;2022-07-05T03:05:50;26.20;45.40
7476;DHT22;3779;49.216;8.650;2022-07-05T03:08:36;26.10;45.30
7476;DHT22;3779;49.216;8.650;2022-07-05T03:11:22;26.10;45.30
7476;DHT22;3779;49.216;8.650;2022-07-05T03:14:09;26.10;45.20
7476;DHT22;3779;49.216;8.650;2022-07-05T03:16:55;26.10;45.20
7476;DHT22;3779;49.216;8.650;2022-07-05T03:19:42;26.10;45.00
7476;DHT22;3779;49.216;8.650;2022-07-05T03:22:29;26.10;45.10
7476;DHT22;3779;49.216;8.650;2022-07-05T03:25:16;26.10;45.10
7476;DHT22;3779;49.216;8.650;2022-07-05T03:28:02;26.10;45.10
7476;DHT22;3779;49.216;8.650;2022-07-05T03:30:48;26.10;45.10
7476;DHT22;3779;49.216;8.650;2022-07-05T03:33:34;26.10;45.20
7476;DHT22;3779;49.216;8.650;2022-07-05T03:36:22;26.10;45.10
7476;DHT22;3779;49.216;8.650;2022-07-05T03:39:08;26.10;45.10
7476;DHT22;3779;49.216;8.650;2022-07-05T03:41:55;26.10;45.30
7476;DHT22;3779;49.216;8.650;2022-07-05T03:44:43;26.10;45.20
7476;DHT22;3779;49.216;8.650;2022-07-05T03:47:31;26.10;45.20
7476;DHT22;3779;49.216;8.650;2022-07-05T03:50:17;26.10;45.20
7476;DHT22;3779;49.216;8.650;2022-07-05T03:53:03;26.00;45.30
7476;DHT22;3779;49.216;8.650;2022-07-05T03:55:50;26.10;45.20
7476;DHT22;3779;49.216;8.650;2022-07-05T03:58:36;26.10;45.20
7476;DHT22;3779;49.216;8.650;2022-07-05T04:01:24;26.00;45.20
7476;DHT22;3779;49.216;8.650;2022-07-05T04:04:11;26.10;45.40
7476;DHT22;3779;49.216;8.650;2022-07-05T04:06:57;26.10;45.20
7476;DHT22;3779;49.216;8.650;2022-07-05T04:09:43;26.00;45.30
7476;DHT22;3779;49.216;8.650;2022-07-05T04:12:30;26.10;45.50
7476;DHT22;3779;49.216;8.650;2022-07-05T04:15:16;26.00;45.50
7476;DHT22;3779;49.216;8.650;2022-07-05T04:18:02;26.10;45.70
7476;DHT22;3779;49.216;8.650;2022-07-05T04:20:52;26.00;45.80
7476;DHT22;3779;49.216;8.650;2022-07-05T04:23:39;26.00;45.80
7476;DHT22;3779;49.216;8.650;2022-07-05T04:26:25;26.10;45.80
7476;DHT22;3779;49.216;8.650;2022-07-05T04:29:11;26.00;45.80
7476;DHT22;3779;49.216;8.650;2022-07-05T04:31:58;26.10;46.50
7476;DHT22;3779;49.216;8.650;2022-07-05T04:34:45;26.10;46.00
7476;DHT22;3779;49.216;8.650;2022-07-05T04:37:30;26.10;46.00
7476;DHT22;3779;49.216;8.650;2022-07-05T04:40:16;26.00;46.00
7476;DHT22;3779;49.216;8.650;2022-07-05T04:43:02;26.10;46.20
7476;DHT22;3779;49.216;8.650;2022-07-05T04:45:48;26.10;46.30
7476;DHT22;3779;49.216;8.650;2022-07-05T04:48:35;26.10;46.30
7476;DHT22;3779;49.216;8.650;2022-07-05T04:51:22;26.10;46.70
7476;DHT22;3779;49.216;8.650;2022-07-05T04:54:08;26.10;46.90
7476;DHT22;3779;49.216;8.650;2022-07-05T04:56:54;26.10;46.90
7476;DHT22;3779;49.216;8.650;2022-07-05T04:59:40;26.10;46.80
7476;DHT22;3779;49.216;8.650;2022-07-05T05:02:25;26.10;46.70
7476;DHT22;3779;49.216;8.650;2022-07-05T05:05:11;26.10;47.00
7476;DHT22;3779;49.216;8.650;2022-07-05T05:07:57;26.10;46.90
7476;DHT22;3779;49.216;8.650;2022-07-05T05:10:44;26.10;47.00
7476;DHT22;3779;49.216;8.650;2022-07-05T05:13:30;26.10;47.00
7476;DHT22;3779;49.216;8.650;2022-07-05T05:16:16;26.20;47.10
7476;DHT22;3779;49.216;8.650;2022-07-05T05:19:02;26.10;47.30
7476;DHT22;3779;49.216;8.650;2022-07-05T05:21:48;26.10;47.30
7476;DHT22;3779;49.216;8.650;2022-07-05T05:24:34;26.20;47.50
7476;DHT22;3779;49.216;8.650;2022-07-05T05:35:14;26.20;48.40
7476;DHT22;3779;49.216;8.650;2022-07-05T05:38:02;26.20;48.10
7476;DHT22;3779;49.216;8.650;2022-07-05T05:40:48;26.20;48.00
7476;DHT22;3779;49.216;8.650;2022-07-05T05:43:34;26.30;48.20
7476;DHT22;3779;49.216;8.650;2022-07-05T05:46:20;26.30;48.40
7476;DHT22;3779;49.216;8.650;2022-07-05T05:49:09;26.30;48.00
7476;DHT22;3779;49.216;8.650;2022-07-05T05:51:56;26.40;48.60
7476;DHT22;3779;49.216;8.650;2022-07-05T05:54:47;26.40;48.50
7476;DHT22;3779;49.216;8.650;2022-07-05T05:57:37;26.40;48.50
7476;DHT22;3779;49.216;8.650;2022-07-05T06:00:23;26.40;49.30
7476;DHT22;3779;49.216;8.650;2022-07-05T06:03:09;26.50;49.00
7476;DHT22;3779;49.216;8.650;2022-07-05T06:06:10;26.50;48.50
7476;DHT22;3779;49.216;8.650;2022-07-05T06:08:56;26.50;48.50
7476;DHT22;3779;49.216;8.650;2022-07-05T06:11:42;26.50;48.70
7476;DHT22;3779;49.216;8.650;2022-07-05T06:14:28;26.50;46.80
7476;DHT22;3779;49.216;8.650;2022-07-05T06:17:14;26.60;46.10
7476;DHT22;3779;49.216;8.650;2022-07-05T06:20:03;26.60;46.20
7476;DHT22;3779;49.216;8.650;2022-07-05T06:22:50;26.60;46.60
7476;DHT22;3779;49.216;8.650;2022-07-05T06:25:36;26.60;46.50
7476;DHT22;3779;49.216;8.650;2022-07-05T06:28:22;26.60;46.90
7476;DHT22;3779;49.216;8.650;2022-07-05T06:31:08;26.70;45.60
7476;DHT22;3779;49.216;8.650;2022-07-05T06:33:54;26.60;45.90
7476;DHT22;3779;49.216;8.650;2022-07-05T06:36:40;26.60;45.40
7476;DHT22;3779;49.216;8.650;2022-07-05T06:39:26;26.70;45.70
7476;DHT22;3779;49.216;8.650;2022-07-05T06:42:12;26.70;46.80
7476;DHT22;3779;49.216;8.650;2022-07-05T06:44:58;26.70;45.90
7476;DHT22;3779;49.216;8.650;2022-07-05T06:47:44;26.70;45.20
7476;DHT22;3779;49.216;8.650;2022-07-05T06:50:35;26.70;46.50
7476;DHT22;3779;49.216;8.650;2022-07-05T06:53:21;26.80;45.20
7476;DHT22;3779;49.216;8.650;2022-07-05T06:56:07;26.70;45.30
7476;DHT22;3779;49.216;8.650;2022-07-05T06:58:54;26.70;44.30
7476;DHT22;3779;49.216;8.650;2022-07-05T07:04:42;26.70;45.80
7476;DHT22;3779;49.216;8.650;2022-07-05T07:07:31;26.70;46.20
7476;DHT22;3779;49.216;8.650;2022-07-05T07:10:35;26.70;46.10
7476;DHT22;3779;49.216;8.650;2022-07-05T07:13:21;26.70;45.60
7476;DHT22;3779;49.216;8.650;2022-07-05T07:16:07;26.70;46.00
7476;DHT22;3779;49.216;8.650;2022-07-05T07:18:53;26.70;45.30
7476;DHT22;3779;49.216;8.650;2022-07-05T07:21:40;26.70;45.80
7476;DHT22;3779;49.216;8.650;2022-07-05T07:24:26;26.70;45.90
7476;DHT22;3779;49.216;8.650;2022-07-05T07:27:12;26.70;45.20
7476;DHT22;3779;49.216;8.650;2022-07-05T07:29:58;26.70;45.10
7476;DHT22;3779;49.216;8.650;2022-07-05T07:32:45;26.70;44.60
7476;DHT22;3779;49.216;8.650;2022-07-05T07:35:31;26.70;45.30
7476;DHT22;3779;49.216;8.650;2022-07-05T07:38:17;26.70;45.30
7476;DHT22;3779;49.216;8.650;2022-07-05T07:41:03;26.70;45.50
7476;DHT22;3779;49.216;8.650;2022-07-05T07:43:49;26.70;45.20
7476;DHT22;3779;49.216;8.650;2022-07-05T07:46:36;26.80;46.40
7476;DHT22;3779;49.216;8.650;2022-07-05T07:49:22;26.80;45.10
7476;DHT22;3779;49.216;8.650;2022-07-05T07:52:08;26.80;46.70
7476;DHT22;3779;49.216;8.650;2022-07-05T07:54:53;26.80;45.30
7476;DHT22;3779;49.216;8.650;2022-07-05T07:57:39;26.80;46.60
7476;DHT22;3779;49.216;8.650;2022-07-05T08:00:25;26.80;47.60
7476;DHT22;3779;49.216;8.650;2022-07-05T08:03:11;26.90;46.50
7476;DHT22;3779;49.216;8.650;2022-07-05T08:05:57;26.90;45.80
7476;DHT22;3779;49.216;8.650;2022-07-05T08:08:44;26.90;46.30
7476;DHT22;3779;49.216;8.650;2022-07-05T08:11:30;26.90;47.40
7476;DHT22;3779;49.216;8.650;2022-07-05T08:14:17;26.90;45.80
7476;DHT22;3779;49.216;8.650;2022-07-05T08:17:03;26.90;47.30
7476;DHT22;3779;49.216;8.650;2022-07-05T08:19:53;27.00;46.50
7476;DHT22;3779;49.216;8.650;2022-07-05T08:22:58;27.00;46.60
7476;DHT22;3779;49.216;8.650;2022-07-05T08:25:44;27.00;47.30
7476;DHT22;3779;49.216;8.650;2022-07-05T08:28:30;26.90;48.70
7476;DHT22;3779;49.216;8.650;2022-07-05T08:31:16;27.00;47.60
7476;DHT22;3779;49.216;8.650;2022-07-05T08:34:04;27.00;46.60
7476;DHT22;3779;49.216;8.650;2022-07-05T08:36:50;27.10;47.50
7476;DHT22;3779;49.216;8.650;2022-07-05T08:39:36;26.90;47.80
7476;DHT22;3779;49.216;8.650;2022-07-05T08:42:24;26.90;48.50
7476;DHT22;3779;49.216;8.650;2022-07-05T08:45:11;26.90;49.00
7476;DHT22;3779;49.216;8.650;2022-07-05T08:48:00;27.00;48.60
7476;DHT22;3779;49.216;8.650;2022-07-05T08:50:47;26.90;49.40
7476;DHT22;3779;49.216;8.650;2022-07-05T08:53:35;26.90;49.30
7476;DHT22;3779;49.216;8.650;2022-07-05T08:56:22;26.90;49.00
7476;DHT22;3779;49.216;8.650;2022-07-05T08:59:09;26.80;49.60
7476;DHT22;3779;49.216;8.650;2022-07-05T09:01:56;26.90;48.70
7476;DHT22;3779;49.216;8.650;2022-07-05T09:04:44;27.00;48.90
7476;DHT22;3779;49.216;8.650;2022-07-05T09:07:32;26.90;49.20
7476;DHT22;3779;49.216;8.650;2022-07-05T09:10:21;26.80;49.50
7476;DHT22;3779;49.216;8.650;2022-07-05T09:13:09;26.80;49.40
7476;DHT22;3779;49.216;8.650;2022-07-05T09:15:55;26.90;49.60
7476;DHT22;3779;49.216;8.650;2022-07-05T09:18:49;26.80;49.70
7476;DHT22;3779;49.216;8.650;2022-07-05T09:21:36;26.80;49.70
7476;DHT22;3779;49.216;8.650;2022-07-05T09:24:22;26.70;49.90
7476;DHT22;3779;49.216;8.650;2022-07-05T09:27:09;26.80;49.60
7476;DHT22;3779;49.216;8.650;2022-07-05T09:29:56;26.80;49.50
7476;DHT22;3779;49.216;8.650;2022-07-05T09:32:42;26.80;49.40
7476;DHT22;3779;49.216;8.650;2022-07-05T09:35:29;26.80;49.50
7476;DHT22;3779;49.216;8.650;2022-07-05T09:38:19;26.70;49.60
7476;DHT22;3779;49.216;8.650;2022-07-05T09:41:11;26.70;49.70
7476;DHT22;3779;49.216;8.650;2022-07-05T09:43:58;26.80;49.20
7476;DHT22;3779;49.216;8.650;2022-07-05T09:46:44;26.80;49.10
7476;DHT22;3779;49.216;8.650;2022-07-05T09:49:29;26.80;48.70
7476;DHT22;3779;49.216;8.650;2022-07-05T09:55:20;26.80;49.30
7476;DHT22;3779;49.216;8.650;2022-07-05T09:58:07;26.70;49.20
7476;DHT22;3779;49.216;8.650;2022-07-05T10:00:55;26.70;49.20
7476;DHT22;3779;49.216;8.650;2022-07-05T11:07:59;26.90;47.10
7476;DHT22;3779;49.216;8.650;2022-07-05T11:11:09;27.00;47.80
7476;DHT22;3779;49.216;8.650;2022-07-05T11:14:03;27.00;46.70
7476;DHT22;3779;49.216;8.650;2022-07-05T11:17:11;27.10;46.10
7476;DHT22;3779;49.216;8.650;2022-07-05T11:25:48;27.00;47.40
7476;DHT22;3779;49.216;8.650;2022-07-05T11:28:46;26.90;48.20
7476;DHT22;3779;49.216;8.650;2022-07-05T11:31:41;26.90;47.70
7476;DHT22;3779;49.216;8.650;2022-07-05T11:34:37;27.10;47.90
7476;DHT22;3779;49.216;8.650;2022-07-05T11:37:25;27.10;46.30
7476;DHT22;3779;49.216;8.650;2022-07-05T11:43:00;27.10;47.20
7476;DHT22;3779;49.216;8.650;2022-07-05T11:46:00;27.10;48.20
7476;DHT22;3779;49.216;8.650;2022-07-05T11:48:48;27.10;47.90
7476;DHT22;3779;49.216;8.650;2022-07-05T11:51:35;27.10;47.90
7476;DHT22;3779;49.216;8.650;2022-07-05T11:54:29;27.20;47.30
7476;DHT22;3779;49.216;8.650;2022-07-05T11:57:18;27.30;45.70
7476;DHT22;3779;49.216;8.650;2022-07-05T12:00:05;27.30;45.40
7476;DHT22;3779;49.216;8.650;2022-07-05T12:02:58;27.30;46.10
7476;DHT22;3779;49.216;8.650;2022-07-05T12:05:44;27.20;47.60
7476;DHT22;3779;49.216;8.650;2022-07-05T12:08:30;27.00;48.10
7476;DHT22;3779;49.216;8.650;2022-07-05T12:11:16;26.80;49.10
7476;DHT22;3779;49.216;8.650;2022-07-05T12:14:22;26.80;46.90
7476;DHT22;3779;49.216;8.650;2022-07-05T12:17:18;27.00;45.70
7476;DHT22;3779;49.216;8.650;2022-07-05T12:20:06;27.20;46.10
7476;DHT22;3779;49.216;8.650;2022-07-05T12:22:52;27.00;47.00
7476;DHT22;3779;49.216;8.650;2022-07-05T12:25:38;26.90;48.80
7476;DHT22;3779;49.216;8.650;2022-07-05T12:28:25;26.90;46.80
7476;DHT22;3779;49.216;8.650;2022-07-05T12:31:19;27.10;46.30
7476;DHT22;3779;49.216;8.650;2022-07-05T12:34:18;27.20;48.00
7476;DHT22;3779;49.216;8.650;2022-07-05T12:37:07;27.20;47.70
7476;DHT22;3779;49.216;8.650;2022-07-05T12:40:08;27.20;48.00
7476;DHT22;3779;49.216;8.650;2022-07-05T12:43:21;27.00;48.10
7476;DHT22;3779;49.216;8.650;2022-07-05T12:46:07;27.10;48.30
7476;DHT22;3779;49.216;8.650;2022-07-05T12:48:53;27.10;48.10
7476;DHT22;3779;49.216;8.650;2022-07-05T12:51:42;27.10;47.20
7476;DHT22;3779;49.216;8.650;2022-07-05T12:54:28;27.20;45.30
7476;DHT22;3779;49.216;8.650;2022-07-05T12:57:32;27.30;44.80
7476;DHT22;3779;49.216;8.650;2022-07-05T13:00:37;27.30;46.70
7476;DHT22;3779;49.216;8.650;2022-07-05T13:03:23;27.30;44.40
7476;DHT22;3779;49.216;8.650;2022-07-05T13:06:09;27.40;45.50
7476;DHT22;3779;49.216;8.650;2022-07-05T13:08:57;27.20;46.80
7476;DHT22;3779;49.216;8.650;2022-07-05T13:11:43;27.10;48.30
7476;DHT22;3779;49.216;8.650;2022-07-05T13:14:29;27.10;48.30
7476;DHT22;3779;49.216;8.650;2022-07-05T13:17:17;27.10;46.60
7476;DHT22;3779;49.216;8.650;2022-07-05T13:20:03;27.20;46.60
7476;DHT22;3779;49.216;8.650;2022-07-05T13:22:49;27.20;47.80
7476;DHT22;3779;49.216;8.650;2022-07-05T13:25:35;27.00;48.60
7476;DHT22;3779;49.216;8.650;2022-07-05T13:28:21;26.90;48.60
7476;DHT22;3779;49.216;8.650;2022-07-05T13:31:07;26.90;48.60
7476;DHT22;3779;49.216;8.650;2022-07-05T13:33:53;27.10;48.10
7476;DHT22;3779;49.216;8.650;2022-07-05T13:36:39;27.10;48.70
7476;DHT22;3779;49.216;8.650;2022-07-05T13:39:25;27.00;48.10
7476;DHT22;3779;49.216;8.650;2022-07-05T13:42:11;27.10;48.20
7476;DHT22;3779;49.216;8.650;2022-07-05T13:44:57;27.00;48.40
7476;DHT22;3779;49.216;8.650;2022-07-05T13:47:43;27.00;48.30
7476;DHT22;3779;49.216;8.650;2022-07-05T13:50:28;27.10;48.20
7476;DHT22;3779;49.216;8.650;2022-07-05T13:53:17;27.10;48.20
7476;DHT22;3779;49.216;8.650;2022-07-05T13:56:04;26.90;48.80
7476;DHT22;3779;49.216;8.650;2022-07-05T13:58:50;27.00;49.20
7476;DHT22;3779;49.216;8.650;2022-07-05T14:01:36;27.10;47.90
7476;DHT22;3779;49.216;8.650;2022-07-05T14:04:22;27.20;48.00
7476;DHT22;3779;49.216;8.650;2022-07-05T14:07:11;27.30;47.60
7476;DHT22;3779;49.216;8.650;2022-07-05T14:09:56;27.20;47.80
7476;DHT22;3779;49.216;8.650;2022-07-05T14:12:42;27.20;48.00
7476;DHT22;3779;49.216;8.650;2022-07-05T14:15:28;27.00;48.40
7476;DHT22;3779;49.216;8.650;2022-07-05T14:18:15;27.10;48.60
7476;DHT22;3779;49.216;8.650;2022-07-05T14:21:01;27.00;48.50
7476;DHT22;3779;49.216;8.650;2022-07-05T14:23:47;27.10;48.00
7476;DHT22;3779;49.216;8.650;2022-07-05T14:26:33;27.10;48.90
7476;DHT22;3779;49.216;8.650;2022-07-05T14:29:19;27.00;48.40
7476;DHT22;3779;49.216;8.650;2022-07-05T14:32:05;27.20;46.30
7476;DHT22;3779;49.216;8.650;2022-07-05T14:34:51;27.20;47.80
7476;DHT22;3779;49.216;8.650;2022-07-05T14:37:38;27.20;47.30
7476;DHT22;3779;49.216;8.650;2022-07-05T14:40:24;27.30;47.40
7476;DHT22;3779;49.216;8.650;2022-07-05T14:43:10;27.40;44.70
7476;DHT22;3779;49.216;8.650;2022-07-05T14:45:56;27.40;46.90
7476;DHT22;3779;49.216;8.650;2022-07-05T14:48:42;27.20;48.20
7476;DHT22;3779;49.216;8.650;2022-07-05T14:51:28;27.10;48.70
7476;DHT22;3779;49.216;8.650;2022-07-05T14:54:14;27.20;47.80
7476;DHT22;3779;49.216;8.650;2022-07-05T14:57:00;27.30;45.80
7476;DHT22;3779;49.216;8.650;2022-07-05T14:59:47;27.40;45.40
7476;DHT22;3779;49.216;8.650;2022-07-05T15:02:33;27.40;46.30
7476;DHT22;3779;49.216;8.650;2022-07-05T15:05:19;27.30;46.30
7476;DHT22;3779;49.216;8.650;2022-07-05T15:08:05;27.30;46.80
7476;DHT22;3779;49.216;8.650;2022-07-05T15:10:51;27.20;47.60
7476;DHT22;3779;49.216;8.650;2022-07-05T15:13:37;27.20;47.80
7476;DHT22;3779;49.216;8.650;2022-07-05T15:16:23;27.20;47.80
7476;DHT22;3779;49.216;8.650;2022-07-05T15:19:09;27.40;46.00
7476;DHT22;3779;49.216;8.650;2022-07-05T15:21:54;27.20;47.80
7476;DHT22;3779;49.216;8.650;2022-07-05T15:24:41;27.20;47.80
7476;DHT22;3779;49.216;8.650;2022-07-05T15:27:26;27.10;48.10
7476;DHT22;3779;49.216;8.650;2022-07-05T15:30:17;27.20;47.50
7476;DHT22;3779;49.216;8.650;2022-07-05T15:33:03;27.10;48.00
7476;DHT22;3779;49.216;8.650;2022-07-05T15:35:49;27.20;47.40
7476;DHT22;3779;49.216;8.650;2022-07-05T15:38:35;27.40;46.10
7476;DHT22;3779;49.216;8.650;2022-07-05T15:41:22;27.40;45.20
7476;DHT22;3779;49.216;8.650;2022-07-05T15:44:08;27.50;44.30
7476;DHT22;3779;49.216;8.650;2022-07-05T15:46:55;27.50;45.20
7476;DHT22;3779;49.216;8.650;2022-07-05T15:49:52;27.50;45.90
7476;DHT22;3779;49.216;8.650;2022-07-05T15:52:39;27.50;43.60
7476;DHT22;3779;49.216;8.650;2022-07-05T15:55:25;27.30;46.90
7476;DHT22;3779;49.216;8.650;2022-07-05T15:58:11;27.20;47.20
7476;DHT22;3779;49.216;8.650;2022-07-05T16:00:57;27.10;47.20
7476;DHT22;3779;49.216;8.650;2022-07-05T16:03:45;27.30;45.10
7476;DHT22;3779;49.216;8.650;2022-07-05T16:06:31;27.20;46.80
7476;DHT22;3779;49.216;8.650;2022-07-05T16:09:16;27.20;47.10
7476;DHT22;3779;49.216;8.650;2022-07-05T16:12:02;27.10;46.90
7476;DHT22;3779;49.216;8.650;2022-07-05T16:14:48;27.00;48.00
7476;DHT22;3779;49.216;8.650;2022-07-05T16:17:34;27.00;47.20
7476;DHT22;3779;49.216;8.650;2022-07-05T16:20:20;27.00;46.30
7476;DHT22;3779;49.216;8.650;2022-07-05T16:23:06;27.10;46.00
7476;DHT22;3779;49.216;8.650;2022-07-05T16:25:52;27.30;44.20
7476;DHT22;3779;49.216;8.650;2022-07-05T16:28:38;27.40;46.20
7476;DHT22;3779;49.216;8.650;2022-07-05T16:31:24;27.40;45.90
7476;DHT22;3779;49.216;8.650;2022-07-05T16:34:10;27.40;44.10
7476;DHT22;3779;49.216;8.650;2022-07-05T16:36:56;27.50;42.60
7476;DHT22;3779;49.216;8.650;2022-07-05T16:39:42;27.60;43.10
7476;DHT22;3779;49.216;8.650;2022-07-05T16:42:29;27.60;44.30
7476;DHT22;3779;49.216;8.650;2022-07-05T16:45:14;27.50;45.10
7476;DHT22;3779;49.216;8.650;2022-07-05T16:48:00;27.40;45.30
7476;DHT22;3779;49.216;8.650;2022-07-05T16:50:48;27.50;43.60
7476;DHT22;3779;49.216;8.650;2022-07-05T16:53:34;27.60;44.30
7476;DHT22;3779;49.216;8.650;2022-07-05T16:56:21;27.50;45.10
7476;DHT22;3779;49.216;8.650;2022-07-05T16:59:07;27.60;43.60
7476;DHT22;3779;49.216;8.650;2022-07-05T17:01:53;27.50;45.30
7476;DHT22;3779;49.216;8.650;2022-07-05T17:04:38;27.50;46.10
7476;DHT22;3779;49.216;8.650;2022-07-05T17:07:24;27.40;46.50
7476;DHT22;3779;49.216;8.650;2022-07-05T17:10:10;27.50;45.60
7476;DHT22;3779;49.216;8.650;2022-07-05T17:12:56;27.60;43.80
7476;DHT22;3779;49.216;8.650;2022-07-05T17:15:42;27.40;46.20
7476;DHT22;3779;49.216;8.650;2022-07-05T17:18:28;27.40;46.40
7476;DHT22;3779;49.216;8.650;2022-07-05T17:21:15;27.30;47.40
7476;DHT22;3779;49.216;8.650;2022-07-05T17:24:01;27.10;48.00
7476;DHT22;3779;49.216;8.650;2022-07-05T17:26:47;27.10;47.40
7476;DHT22;3779;49.216;8.650;2022-07-05T17:29:33;27.00;47.30
7476;DHT22;3779;49.216;8.650;2022-07-05T17:32:20;27.10;47.30
7476;DHT22;3779;49.216;8.650;2022-07-05T17:35:06;27.10;45.70
7476;DHT22;3779;49.216;8.650;2022-07-05T17:37:52;27.10;47.00
7476;DHT22;3779;49.216;8.650;2022-07-05T17:40:38;27.10;46.90
7476;DHT22;3779;49.216;8.650;2022-07-05T17:43:24;27.20;47.10
7476;DHT22;3779;49.216;8.650;2022-07-05T17:46:10;27.20;46.70
7476;DHT22;3779;49.216;8.650;2022-07-05T17:48:56;27.30;46.00
7476;DHT22;3779;49.216;8.650;2022-07-05T17:51:43;27.20;46.50
7476;DHT22;3779;49.216;8.650;2022-07-05T17:54:31;27.30;44.60
7476;DHT22;3779;49.216;8.650;2022-07-05T17:57:17;27.30;45.80
7476;DHT22;3779;49.216;8.650;2022-07-05T18:00:04;27.30;45.70
7476;DHT22;3779;49.216;8.650;2022-07-05T18:02:57;27.30;46.40
7476;DHT22;3779;49.216;8.650;2022-07-05T18:05:43;27.20;46.60
7476;DHT22;3779;49.216;8.650;2022-07-05T18:08:30;27.20;46.40
7476;DHT22;3779;49.216;8.650;2022-07-05T18:11:16;27.10;46.60
7476;DHT22;3779;49.216;8.650;2022-07-05T18:14:02;27.20;45.10
7476;DHT22;3779;49.216;8.650;2022-07-05T18:16:48;27.20;46.40
7476;DHT22;3779;49.216;8.650;2022-07-05T18:19:34;27.10;46.80
7476;DHT22;3779;49.216;8.650;2022-07-05T18:22:20;27.10;47.20
7476;DHT22;3779;49.216;8.650;2022-07-05T18:25:06;27.10;46.70
7476;DHT22;3779;49.216;8.650;2022-07-05T18:27:52;27.10;46.50
7476;DHT22;3779;49.216;8.650;2022-07-05T18:30:38;27.20;46.20
7476;DHT22;3779;49.216;8.650;2022-07-05T18:33:24;27.30;46.00
7476;DHT22;3779;49.216;8.650;2022-07-05T18:36:10;27.30;45.70
7476;DHT22;3779;49.216;8.650;2022-07-05T18:38:56;27.30;45.70
7476;DHT22;3779;49.216;8.650;2022-07-05T18:41:42;27.40;44.80
7476;DHT22;3779;49.216;8.650;2022-07-05T18:44:28;27.50;45.20
7476;DHT22;3779;49.216;8.650;2022-07-05T18:47:14;27.60;43.80
7476;DHT22;3779;49.216;8.650;2022-07-05T18:49:59;27.60;43.10
7476;DHT22;3779;49.216;8.650;2022-07-05T18:52:45;27.70;43.10
7476;DHT22;3779;49.216;8.650;2022-07-05T18:55:31;27.70;43.40
7476;DHT22;3779;49.216;8.650;2022-07-05T18:58:17;27.70;42.30
7476;DHT22;3779;49.216;8.650;2022-07-05T19:01:06;27.70;42.30
7476;DHT22;3779;49.216;8.650;2022-07-05T19:03:52;27.70;41.90
7476;DHT22;3779;49.216;8.650;2022-07-05T19:06:40;27.70;42.30
7476;DHT22;3779;49.216;8.650;2022-07-05T19:09:44;27.70;42.00
7476;DHT22;3779;49.216;8.650;2022-07-05T19:12:48;27.60;42.90
7476;DHT22;3779;49.216;8.650;2022-07-05T19:15:53;27.60;42.10
7476;DHT22;3779;49.216;8.650;2022-07-05T19:18:39;27.60;42.40
7476;DHT22;3779;49.216;8.650;2022-07-05T19:21:25;27.60;42.10
7476;DHT22;3779;49.216;8.650;2022-07-05T19:24:11;27.60;41.90
7476;DHT22;3779;49.216;8.650;2022-07-05T19:26:57;27.60;42.60
7476;DHT22;3779;49.216;8.650;2022-07-05T19:29:43;27.60;42.00
7476;DHT22;3779;49.216;8.650;2022-07-05T19:32:29;27.60;42.00
7476;DHT22;3779;49.216;8.650;2022-07-05T19:35:15;27.60;41.80
7476;DHT22;3779;49.216;8.650;2022-07-05T19:38:01;27.50;41.80
7476;DHT22;3779;49.216;8.650;2022-07-05T19:40:48;27.60;42.70